Time;durP1;ratioP1;P1;durP2;ratioP2;P2;SDS_P1;SDS_P2;PMS_P1;PMS_P2;Temp;Humidity;BMP_temperature;BMP_pressure;BME280_temperature;BME280_humidity;BME280_pressure;Samples;Min_cycle;Max_cycle;Signal;HPM_P1;HPM_P2
2021/06/16 00:01:34;;;;;;;;;;;;;;;22.40;35.53;101624.06;6193267;22;96971;-87
2021/06/16 00:04:01;;;;;;;;;;;;;;;22.35;34.69;101626.22;6195117;22;96856;-88
2021/06/16 00:06:32;;;;;;;;;;;;;;;22.35;35.08;101620.84;6197821;22;101139;-88
2021/06/16 00:08:58;;;;;;;;;;;;;;;22.37;34.89;101623.44;6169442;22;97793;-88
2021/06/16 00:11:25;;;;;;;;;;;;;;;22.12;35.86;101621.63;6195475;22;96555;-87
2021/06/16 00:14:05;;;;;;;;;;;;;;;22.25;34.69;101627.88;6183934;22;96735;-87
2021/06/16 00:16:31;;;;;;;;;;;;;;;21.83;35.80;101626.28;6164607;22;98889;-88
2021/06/16 00:19:00;;;;;;;;;;;;;;;21.97;35.36;101634.31;6167448;22;99604;-88
2021/06/16 00:21:26;;;;;;;;;;;;;;;21.44;35.17;101625.34;6170846;22;96774;-88
2021/06/16 00:23:57;;;;;;;;;;;;;;;20.85;35.63;101629.22;6176785;22;96376;-88
2021/06/16 00:26:23;;;;;;;;;;;;;;;21.22;35.19;101629.53;6174072;22;100340;-89
2021/06/16 00:34:21;;;;;;;;;;;;;;;21.45;33.92;101631.56;6168175;22;96838;-89
2021/06/16 00:39:28;;;;;;;;;;;;;;;21.82;33.44;101628.09;6168223;22;96743;-88
2021/06/16 00:44:36;;;;;;;;;;;;;;;22.17;32.42;101627.53;6169335;22;97053;-87
2021/06/16 00:47:06;;;;;;;;;;;;;;;21.80;32.92;101638.09;6164706;22;99669;-87
2021/06/16 00:49:35;;;;;;;;;;;;;;;21.83;33.42;101629.84;6163858;22;100161;-88
2021/06/16 00:52:02;;;;;;;;;;;;;;;21.78;33.58;101623.91;6169593;22;96603;-87
2021/06/16 00:57:09;;;;;;;;;;;;;;;22.05;33.23;101631.09;6167611;22;98749;-87
2021/06/16 01:02:21;;;;;;;;;;;;;;;21.46;33.87;101631.44;6179165;22;96555;-87
2021/06/16 01:04:49;;;;;;;;;;;;;;;21.76;33.30;101630.34;6182573;22;96187;-87
2021/06/16 01:07:24;;;;;;;;;;;;;;;21.57;33.54;101630.75;6176661;22;99938;-87
2021/06/16 01:09:55;;;;;;;;;;;;;;;21.32;33.96;101626.16;6170832;22;99918;-87
2021/06/16 01:12:27;;;;;;;;;;;;;;;21.65;33.67;101636.47;6180081;22;96418;-88
2021/06/16 01:20:49;;;;;;;;;;;;;;;21.39;34.25;101634.69;6203996;22;98628;-88
2021/06/16 01:23:34;;;;;;;;;;;;;;;21.55;33.72;101635.34;6207311;22;96618;-88
2021/06/16 01:26:25;;;;;;;;;;;;;;;21.29;33.84;101638.91;6210680;22;96600;-88
2021/06/16 01:28:53;;;;;;;;;;;;;;;21.23;34.08;101642.00;6201777;22;97122;-88
2021/06/16 01:31:24;;;;;;;;;;;;;;;21.28;34.18;101639.88;6210772;22;100430;-88
2021/06/16 01:36:34;;;;;;;;;;;;;;;21.20;34.38;101628.78;6213868;22;96187;-88
2021/06/16 01:39:08;;;;;;;;;;;;;;;21.34;33.74;101637.66;6212419;22;98959;-88
2021/06/16 01:41:52;;;;;;;;;;;;;;;21.46;33.51;101638.69;6212945;22;97479;-87
2021/06/16 01:44:20;;;;;;;;;;;;;;;21.62;33.49;101633.97;6213149;22;96359;-88
2021/06/16 01:46:49;;;;;;;;;;;;;;;21.42;33.50;101631.75;6211850;22;96225;-88
2021/06/16 01:49:25;;;;;;;;;;;;;;;21.58;33.10;101637.00;6212457;22;100080;-89
2021/06/16 01:51:52;;;;;;;;;;;;;;;21.47;32.99;101637.69;6181817;22;97498;-88
2021/06/16 01:57:02;;;;;;;;;;;;;;;21.23;33.64;101636.63;6210826;22;96697;-88
2021/06/16 02:02:10;;;;;;;;;;;;;;;20.49;34.90;101627.03;6207308;22;98718;-87
2021/06/16 02:04:37;;;;;;;;;;;;;;;20.19;35.59;101632.47;6183018;22;96552;-87
2021/06/16 02:07:10;;;;;;;;;;;;;;;20.57;34.80;101632.81;6208896;22;96425;-88
2021/06/16 02:09:48;;;;;;;;;;;;;;;20.30;35.29;101643.41;6180960;22;97715;-88
2021/06/16 02:12:18;;;;;;;;;;;;;;;20.81;35.27;101633.06;6153703;22;97495;-88
2021/06/16 02:14:49;;;;;;;;;;;;;;;20.67;34.66;101633.97;6178768;22;96615;-88
2021/06/16 02:17:18;;;;;;;;;;;;;;;20.52;35.22;101634.06;6172067;22;96921;-88
2021/06/16 02:19:48;;;;;;;;;;;;;;;20.67;35.17;101633.97;6167422;22;99267;-88
2021/06/16 02:25:00;;;;;;;;;;;;;;;20.95;35.17;101635.72;6163439;22;96789;-88
2021/06/16 02:27:33;;;;;;;;;;;;;;;21.03;35.03;101625.34;6168431;22;96514;-87
2021/06/16 02:30:01;;;;;;;;;;;;;;;21.10;34.59;101628.50;6168632;22;100207;-87
2021/06/16 02:32:27;;;;;;;;;;;;;;;21.21;34.75;101625.97;6177888;22;97967;-87
2021/06/16 02:34:56;;;;;;;;;;;;;;;21.14;34.60;101627.31;6177088;22;96587;-86
2021/06/16 02:37:30;;;;;;;;;;;;;;;21.11;34.51;101624.84;6167409;22;97060;-87
2021/06/16 02:40:01;;;;;;;;;;;;;;;21.14;35.00;101626.44;6167530;22;101077;-87
2021/06/16 02:42:33;;;;;;;;;;;;;;;21.25;34.25;101627.53;6171688;22;96843;-87
2021/06/16 02:53:11;;;;;;;;;;;;;;;20.83;35.07;101623.09;6144158;23;98636;-87
2021/06/16 02:55:42;;;;;;;;;;;;;;;20.76;35.33;101620.88;6143078;23;96838;-86
2021/06/16 02:58:12;;;;;;;;;;;;;;;20.77;35.45;101628.00;6140965;23;97111;-86
2021/06/16 03:06:06;;;;;;;;;;;;;;;21.14;35.00;101631.81;6139119;23;96602;-88
2021/06/16 03:08:34;;;;;;;;;;;;;;;20.91;34.89;101634.19;6141664;23;96751;-88
2021/06/16 03:11:01;;;;;;;;;;;;;;;20.95;35.06;101633.03;6141660;23;100525;-88
2021/06/16 03:13:42;;;;;;;;;;;;;;;20.85;35.42;101639.09;6141985;23;99487;-87
2021/06/16 03:16:09;;;;;;;;;;;;;;;20.97;34.90;101636.50;6142929;23;96594;-88
2021/06/16 03:18:38;;;;;;;;;;;;;;;20.92;34.72;101633.25;6141174;23;96851;-86
2021/06/16 03:21:07;;;;;;;;;;;;;;;20.99;35.16;101631.88;6138937;23;99108;-88
2021/06/16 03:23:53;;;;;;;;;;;;;;;20.88;35.08;101629.00;6137066;23;99862;-88
2021/06/16 03:26:23;;;;;;;;;;;;;;;21.15;34.79;101628.19;6150508;22;95929;-88
2021/06/16 03:29:12;;;;;;;;;;;;;;;21.02;34.92;101629.00;6151201;23;96382;-87
2021/06/16 03:34:38;;;;;;;;;;;;;;;21.29;34.35;101636.22;6147145;23;98390;-87
2021/06/16 03:39:59;;;;;;;;;;;;;;;21.25;34.82;101635.59;6146850;23;96256;-88
2021/06/16 03:42:26;;;;;;;;;;;;;;;21.38;34.44;101630.25;6143839;23;99482;-87
2021/06/16 03:44:55;;;;;;;;;;;;;;;21.16;35.07;101635.31;6144566;23;100018;-88
2021/06/16 03:47:23;;;;;;;;;;;;;;;21.37;34.57;101633.91;6145376;23;96636;-86
2021/06/16 03:52:35;;;;;;;;;;;;;;;21.53;34.88;101625.69;6167853;22;98834;-87
2021/06/16 03:55:02;;;;;;;;;;;;;;;21.61;34.39;101621.50;6179744;22;100102;-87
2021/06/16 03:57:29;;;;;;;;;;;;;;;21.34;35.17;101623.34;6180487;22;96352;-87
2021/06/16 03:59:56;;;;;;;;;;;;;;;21.61;34.46;101634.06;6178113;22;96387;-87
2021/06/16 04:02:27;;;;;;;;;;;;;;;21.86;33.89;101632.28;6149753;22;97761;-86
2021/06/16 04:04:57;;;;;;;;;;;;;;;21.56;34.19;101623.63;6175232;22;99072;-87
2021/06/16 04:10:06;;;;;;;;;;;;;;;21.76;34.09;101622.28;6176604;22;96760;-87
2021/06/16 04:12:33;;;;;;;;;;;;;;;21.56;34.54;101633.53;6150935;22;97925;-87
2021/06/16 04:15:02;;;;;;;;;;;;;;;21.63;34.38;101621.41;6168866;22;98798;-88
2021/06/16 04:22:56;;;;;;;;;;;;;;;22.06;33.88;101628.25;6166430;22;96761;-87
2021/06/16 04:28:05;;;;;;;;;;;;;;;22.04;33.41;101621.28;6169083;22;96565;-90
2021/06/16 04:30:31;;;;;;;;;;;;;;;21.97;33.62;101617.28;6169456;22;96592;-88
2021/06/16 04:33:00;;;;;;;;;;;;;;;22.04;33.63;101627.53;6140969;22;97718;-89
2021/06/16 04:35:30;;;;;;;;;;;;;;;21.93;33.56;101626.50;6141577;22;97546;-90
2021/06/16 04:37:58;;;;;;;;;;;;;;;22.10;33.39;101623.53;6169481;22;96705;-89
2021/06/16 04:40:26;;;;;;;;;;;;;;;22.08;33.28;101623.66;6170185;22;96453;-88
2021/06/16 04:42:56;;;;;;;;;;;;;;;21.92;33.31;101627.50;6168920;22;100602;-89
2021/06/16 04:45:24;;;;;;;;;;;;;;;21.93;33.37;101631.88;6174865;22;96915;-88
2021/06/16 04:47:50;;;;;;;;;;;;;;;22.03;33.11;101630.31;6176919;22;96457;-88
2021/06/16 04:50:18;;;;;;;;;;;;;;;21.93;33.37;101637.25;6177248;22;96486;-88
2021/06/16 04:52:47;;;;;;;;;;;;;;;22.22;33.08;101634.31;6177653;22;98895;-87
2021/06/16 04:55:16;;;;;;;;;;;;;;;22.63;32.71;101627.81;6153247;22;97419;-88
2021/06/16 04:57:44;;;;;;;;;;;;;;;22.55;32.32;101633.75;6170465;22;96649;-89
2021/06/16 05:02:54;;;;;;;;;;;;;;;23.13;31.87;101634.94;6168640;22;99981;-89
2021/06/16 05:05:22;;;;;;;;;;;;;;;22.83;31.96;101624.56;6172896;22;96821;-88
2021/06/16 05:07:50;;;;;;;;;;;;;;;22.86;32.03;101636.94;6180797;22;96514;-88
2021/06/16 05:13:00;;;;;;;;;;;;;;;22.97;31.69;101623.56;6181139;22;98893;-87
2021/06/16 05:15:30;;;;;;;;;;;;;;;23.10;31.54;101626.22;6182440;22;98773;-88
2021/06/16 05:17:59;;;;;;;;;;;;;;;23.27;30.93;101626.69;6183370;22;97093;-88
2021/06/16 05:20:26;;;;;;;;;;;;;;;23.49;30.64;101627.78;6156270;22;96080;-89
2021/06/16 05:22:58;;;;;;;;;;;;;;;23.62;30.39;101628.59;6181222;22;100252;-88
2021/06/16 05:28:22;;;;;;;;;;;;;;;23.97;30.31;101624.00;6181007;22;95986;-88
2021/06/16 05:30:50;;;;;;;;;;;;;;;24.10;30.02;101624.78;6179238;22;95969;-89
2021/06/16 05:33:17;;;;;;;;;;;;;;;24.03;30.05;101623.53;6150721;22;97577;-89
2021/06/16 05:35:44;;;;;;;;;;;;;;;23.15;31.12;101624.91;6141752;22;97805;-89
2021/06/16 05:38:17;;;;;;;;;;;;;;;23.12;31.23;101624.25;6168354;22;96718;-89
2021/06/16 05:40:44;;;;;;;;;;;;;;;23.92;29.86;101620.81;6168197;22;96494;-89
2021/06/16 05:45:52;;;;;;;;;;;;;;;24.04;29.58;101619.84;6165840;22;98511;-88
2021/06/16 05:48:21;;;;;;;;;;;;;;;24.47;28.82;101617.38;6168286;22;96566;-88
2021/06/16 05:50:50;;;;;;;;;;;;;;;24.62;28.24;101620.66;6174559;22;96804;-89
2021/06/16 05:53:35;;;;;;;;;;;;;;;24.67;27.80;101621.16;6181034;22;99037;-87
2021/06/16 05:56:07;;;;;;;;;;;;;;;24.89;27.54;101615.75;6178680;22;99886;-88
2021/06/16 05:58:34;;;;;;;;;;;;;;;24.55;28.33;101622.13;6180848;22;96385;-88
2021/06/16 06:01:16;;;;;;;;;;;;;;;24.42;28.24;101616.00;6175604;22;96827;-90
2021/06/16 06:06:24;;;;;;;;;;;;;;;24.87;27.93;101625.81;6165717;22;99384;-88
2021/06/16 06:11:36;;;;;;;;;;;;;;;24.21;29.20;101619.44;6171814;22;96554;-89
2021/06/16 06:14:06;;;;;;;;;;;;;;;23.67;30.25;101624.56;6168762;22;98159;-89
2021/06/16 06:16:33;;;;;;;;;;;;;;;24.70;28.82;101617.34;6169445;22;99819;-89
2021/06/16 06:19:00;;;;;;;;;;;;;;;24.88;28.81;101613.13;6171277;22;96715;-88
2021/06/16 06:21:30;;;;;;;;;;;;;;;25.24;27.83;101617.38;6170732;22;96753;-90
2021/06/16 06:29:28;;;;;;;;;;;;;;;24.59;28.54;101608.28;6178189;22;96517;-88
2021/06/16 06:34:43;;;;;;;;;;;;;;;24.23;29.33;101614.75;6174813;22;96530;-90
2021/06/16 06:37:11;;;;;;;;;;;;;;;24.68;28.60;101613.94;6177752;22;99499;-87
2021/06/16 06:39:44;;;;;;;;;;;;;;;24.51;28.60;101613.44;6178784;22;96481;-88
2021/06/16 06:42:38;;;;;;;;;;;;;;;25.64;26.81;101621.22;6178666;22;96569;-87
2021/06/16 06:45:18;;;;;;;;;;;;;;;25.83;27.20;101614.22;6179292;22;98593;-88
2021/06/16 06:47:44;;;;;;;;;;;;;;;25.98;26.38;101612.91;6177518;22;99893;-88
2021/06/16 06:55:30;;;;;;;;;;;;;;;25.62;27.50;101616.91;6061736;22;100137;-88
2021/06/16 06:58:00;;;;;;;;;;;;;;;26.01;27.20;101618.88;6161769;22;96831;-89
2021/06/16 07:00:49;;;;;;;;;;;;;;;26.48;26.38;101608.47;6179014;22;96482;-89
2021/06/16 07:03:37;;;;;;;;;;;;;;;26.04;27.23;101613.22;6167732;22;96518;-89
2021/06/16 07:06:17;;;;;;;;;;;;;;;26.43;26.78;101608.03;6174728;22;99988;-88
2021/06/16 07:19:15;;;;;;;;;;;;;;;25.66;28.75;101602.13;6202313;22;99910;-89
2021/06/16 07:22:07;;;;;;;;;;;;;;;25.31;28.94;101596.97;6204789;22;96736;-89
2021/06/16 07:24:55;;;;;;;;;;;;;;;25.46;28.90;101608.34;6177660;22;96849;-89
2021/06/16 07:27:29;;;;;;;;;;;;;;;26.58;27.66;101590.41;6200070;22;101516;-91
2021/06/16 07:29:59;;;;;;;;;;;;;;;26.06;28.01;101604.94;6199866;22;96737;-89
2021/06/16 07:32:27;;;;;;;;;;;;;;;25.60;28.92;101599.97;6200415;22;96629;-88
2021/06/16 07:34:54;;;;;;;;;;;;;;;26.65;27.79;101590.72;6204338;22;96569;-89
2021/06/16 07:37:23;;;;;;;;;;;;;;;26.66;27.56;101592.41;6205124;22;101062;-90
2021/06/16 07:39:50;;;;;;;;;;;;;;;26.87;27.50;101595.91;6209131;22;99547;-90
2021/06/16 07:53:00;;;;;;;;;;;;;;;27.68;27.15;101581.19;6154683;22;96558;-90
2021/06/16 08:20:17;;;;;;;;;;;;;;;28.14;27.76;101585.81;6143293;23;98789;-90
2021/06/16 08:25:26;;;;;;;;;;;;;;;27.83;27.99;101578.88;6148087;23;96742;-88
2021/06/16 08:27:54;;;;;;;;;;;;;;;28.59;27.15;101583.19;6150122;23;96602;-89
2021/06/16 08:32:52;;;;;;;;;;;;;;;28.70;27.47;101585.72;6149565;22;96508;-86
2021/06/16 08:35:33;;;;;;;;;;;;;;;28.48;27.72;101570.69;6152420;22;96467;-88
2021/06/16 08:38:02;;;;;;;;;;;;;;;28.32;27.83;101572.31;6152009;22;96143;-86
2021/06/16 08:45:51;;;;;;;;;;;;;;;28.98;27.12;101570.25;6149786;22;95910;-88
2021/06/16 08:53:48;;;;;;;;;;;;;;;28.84;27.24;101566.19;6139840;23;96597;-88
2021/06/16 08:58:50;;;;;;;;;;;;;;;28.76;27.28;101574.25;6129366;22;100382;-87
2021/06/16 09:01:17;;;;;;;;;;;;;;;29.01;26.77;101563.66;6203507;22;101765;-88
2021/06/16 09:03:44;;;;;;;;;;;;;;;28.95;26.79;101562.38;6202887;22;100345;-88
2021/06/16 09:08:56;;;;;;;;;;;;;;;28.91;27.16;101566.44;6200633;22;96396;-85
2021/06/16 09:14:13;;;;;;;;;;;;;;;28.60;27.32;101567.75;6203228;22;96701;-86
2021/06/16 09:16:40;;;;;;;;;;;;;;;28.79;26.44;101571.25;6209463;22;96243;-88
2021/06/16 09:19:23;;;;;;;;;;;;;;;28.93;26.57;101565.28;6212429;22;95967;-88
2021/06/16 09:21:51;;;;;;;;;;;;;;;29.12;26.45;101563.44;6206883;22;97155;-88
2021/06/16 09:24:21;;;;;;;;;;;;;;;29.04;26.38;101560.63;6206085;22;98824;-87
2021/06/16 09:26:50;;;;;;;;;;;;;;;28.77;26.69;101565.09;6207537;22;96566;-88
2021/06/16 09:29:28;;;;;;;;;;;;;;;28.57;27.05;101558.00;6210150;22;96466;-87
2021/06/16 09:32:03;;;;;;;;;;;;;;;28.77;26.57;101556.06;6206263;22;100661;-87
2021/06/16 09:34:30;;;;;;;;;;;;;;;28.69;25.99;101551.34;6206516;22;98821;-88
2021/06/16 09:37:02;;;;;;;;;;;;;;;28.57;26.29;101552.56;6207743;22;96523;-88
2021/06/16 09:39:39;;;;;;;;;;;;;;;28.62;26.21;101544.81;6204203;22;96634;-89
2021/06/16 09:42:16;;;;;;;;;;;;;;;28.42;26.46;101552.22;6202722;22;99949;-87
2021/06/16 09:50:11;;;;;;;;;;;;;;;28.58;26.07;101550.72;6195416;22;96823;-87
2021/06/16 09:52:39;;;;;;;;;;;;;;;28.29;25.82;101540.00;6173452;22;99057;-84
2021/06/16 09:55:24;;;;;;;;;;;;;;;28.74;25.53;101538.22;6204090;22;101070;-87
2021/06/16 10:03:21;;;;;;;;;;;;;;;28.68;24.35;101524.34;6209971;22;98861;-86
2021/06/16 10:06:05;;;;;;;;;;;;;;;28.92;24.79;101527.34;6205839;22;99010;-85
2021/06/16 10:11:18;;;;;;;;;;;;;;;28.74;25.49;101510.13;6205267;22;96780;-87
2021/06/16 10:13:45;;;;;;;;;;;;;;;28.63;26.02;101516.63;6207373;22;97891;-86
2021/06/16 10:16:12;;;;;;;;;;;;;;;28.57;25.89;101506.34;6207458;22;96933;-87
2021/06/16 10:18:43;;;;;;;;;;;;;;;29.15;25.23;101506.81;6209762;22;96454;-88
2021/06/16 10:26:32;;;;;;;;;;;;;;;29.38;24.72;101500.91;6162243;22;97366;-86
2021/06/16 10:29:03;;;;;;;;;;;;;;;29.24;24.57;101496.88;6152559;22;96503;-85
2021/06/16 10:31:34;;;;;;;;;;;;;;;29.24;24.66;101491.41;6178699;22;96074;-86
2021/06/16 10:34:02;;;;;;;;;;;;;;;28.44;25.41;101486.84;6178845;22;97879;-85
2021/06/16 10:39:14;;;;;;;;;;;;;;;28.96;25.75;101489.78;6178570;22;97233;-85
2021/06/16 10:45:09;;;;;;;;;;;;;;;29.32;25.17;101486.91;6171495;22;98789;-90
2021/06/16 10:47:53;;;;;;;;;;;;;;;29.34;25.54;101480.47;6178083;22;99814;-88
2021/06/16 10:50:21;;;;;;;;;;;;;;;28.52;25.83;101481.50;6177135;22;96773;-87
2021/06/16 10:53:06;;;;;;;;;;;;;;;28.63;26.44;101481.28;6181163;22;96602;-88
2021/06/16 10:56:06;;;;;;;;;;;;;;;28.56;26.06;101480.19;6182259;22;96841;-88
2021/06/16 10:58:34;;;;;;;;;;;;;;;28.57;25.98;101472.88;6181048;22;98703;-86
2021/06/16 11:01:12;;;;;;;;;;;;;;;28.39;26.09;101481.00;6178193;22;96615;-86
2021/06/16 11:03:57;;;;;;;;;;;;;;;28.59;25.85;101479.03;6183801;22;100318;-86
2021/06/16 11:06:51;;;;;;;;;;;;;;;28.65;26.00;101473.81;6205606;22;100205;-87
2021/06/16 11:12:31;;;;;;;;;;;;;;;28.55;26.17;101464.91;6200198;22;96201;-87
2021/06/16 11:14:58;;;;;;;;;;;;;;;29.24;25.29;101472.38;6203995;22;96255;-88
2021/06/16 11:17:44;;;;;;;;;;;;;;;29.16;25.42;101461.41;6199429;22;98896;-86
2021/06/16 11:20:14;;;;;;;;;;;;;;;28.62;26.12;101457.81;6199751;22;100218;-87
2021/06/16 11:26:11;;;;;;;;;;;;;;;28.44;26.17;101451.50;5158352;27;96705;-89
2021/06/16 11:28:37;;;;;;;;;;;;;;;28.40;25.98;101448.25;5155909;27;96964;-88
2021/06/16 11:31:07;;;;;;;;;;;;;;;29.27;26.02;101447.56;5157574;27;101321;-88
2021/06/16 11:33:46;;;;;;;;;;;;;;;28.84;25.78;101451.94;5151045;27;99135;-88
2021/06/16 11:43:58;;;;;;;;;;;;;;;29.09;25.29;101433.13;5069933;27;96445;-86
2021/06/16 11:46:28;;;;;;;;;;;;;;;28.99;25.28;101432.38;5070271;27;96876;-88
2021/06/16 11:49:04;;;;;;;;;;;;;;;29.16;24.93;101428.75;5071129;27;96738;-88
2021/06/16 11:51:32;;;;;;;;;;;;;;;29.77;24.53;101428.69;5075079;27;100550;-89
2021/06/16 11:54:19;;;;;;;;;;;;;;;30.07;24.02;101424.56;5076415;27;99661;-88
2021/06/16 11:56:55;;;;;;;;;;;;;;;30.04;23.77;101427.66;5076966;27;96726;-90
2021/06/16 12:26:20;;;;;;;;;;;;;;;30.52;23.47;101387.94;5052409;27;96472;-88
2021/06/16 12:28:50;;;;;;;;;;;;;;;30.64;22.99;101383.88;5051218;27;96721;-89
2021/06/16 12:34:13;;;;;;;;;;;;;;;30.81;22.65;101377.38;5050832;27;98578;-86
2021/06/16 12:36:47;;;;;;;;;;;;;;;30.83;22.82;101372.63;5043028;27;99786;-88
2021/06/16 12:39:24;;;;;;;;;;;;;;;30.35;23.17;101367.94;5030231;28;96749;-89
2021/06/16 12:42:09;;;;;;;;;;;;;;;30.28;23.23;101375.06;5030589;28;96642;-89
2021/06/16 12:45:00;;;;;;;;;;;;;;;30.63;23.76;101371.25;5039075;28;99075;-90
2021/06/16 12:47:31;;;;;;;;;;;;;;;30.96;23.27;101372.09;5037692;28;98018;-89
2021/06/16 12:50:12;;;;;;;;;;;;;;;30.81;23.44;101367.31;5033984;28;96727;-89
2021/06/16 13:12:16;;;;;;;;;;;;;;;31.76;22.22;101357.47;5006769;28;96860;-89
2021/06/16 13:17:43;;;;;;;;;;;;;;;32.33;21.99;101366.22;5016974;28;98838;-90
2021/06/16 13:20:11;;;;;;;;;;;;;;;32.16;21.69;101356.44;5002275;28;99049;-88
2021/06/16 13:22:48;;;;;;;;;;;;;;;33.07;20.86;101345.47;5028658;28;96089;-89
2021/06/16 13:25:31;;;;;;;;;;;;;;;33.80;20.21;101349.31;5022663;28;96165;-89
2021/06/16 13:28:02;;;;;;;;;;;;;;;34.51;19.23;101339.38;5011171;28;98898;-91
2021/06/16 13:30:30;;;;;;;;;;;;;;;34.90;19.03;101339.75;5017772;28;99540;-90
2021/06/16 13:32:59;;;;;;;;;;;;;;;35.29;18.85;101335.63;5021757;28;96608;-87
2021/06/16 13:35:28;;;;;;;;;;;;;;;35.62;18.69;101333.06;5021982;28;96266;-88
2021/06/16 13:38:05;;;;;;;;;;;;;;;35.45;18.47;101321.53;5017144;28;99215;-91
2021/06/16 13:40:33;;;;;;;;;;;;;;;35.18;18.84;101315.03;5013236;28;97742;-86
2021/06/16 13:43:00;;;;;;;;;;;;;;;35.73;18.24;101318.75;5024967;28;96598;-90
2021/06/16 13:53:33;;;;;;;;;;;;;;;37.40;16.70;101309.41;5016122;28;96839;-90
2021/06/16 13:56:12;;;;;;;;;;;;;;;36.01;17.49;101318.63;5020390;28;96439;-89
2021/06/16 14:04:02;;;;;;;;;;;;;;;38.58;15.22;101308.84;5013611;28;96607;-91
2021/06/16 14:06:35;;;;;;;;;;;;;;;39.27;14.90;101306.91;5025225;28;96650;-90
2021/06/16 14:09:13;;;;;;;;;;;;;;;40.15;13.76;101304.56;5027507;28;97323;-88
2021/06/16 14:12:05;;;;;;;;;;;;;;;41.45;12.96;101293.38;5030135;28;99696;-88
2021/06/16 14:14:33;;;;;;;;;;;;;;;39.88;14.07;101290.25;5037517;28;95914;-89
2021/06/16 14:17:00;;;;;;;;;;;;;;;41.58;12.90;101295.91;5017669;28;96231;-88
2021/06/16 14:19:28;;;;;;;;;;;;;;;43.32;11.64;101299.56;5032693;28;99037;-89
2021/06/16 14:44:19;;;;;;;;;;;;;;;49.90;6.89;101289.47;5006049;28;96874;-90
2021/06/16 14:46:51;;;;;;;;;;;;;;;50.03;7.06;101283.06;5015489;28;96612;-90
2021/06/16 14:49:33;;;;;;;;;;;;;;;48.25;8.09;101275.84;5019912;28;96750;-90
2021/06/16 14:52:01;;;;;;;;;;;;;;;45.66;9.37;101269.88;5025152;28;98268;-89
2021/06/16 15:02:31;;;;;;;;;;;;;;;49.61;7.52;101265.16;5013147;28;99857;-91
2021/06/16 15:04:59;;;;;;;;;;;;;;;47.75;8.67;101251.81;5017928;28;97796;-93
2021/06/16 15:07:48;;;;;;;;;;;;;;;50.02;7.43;101264.56;5017814;28;96463;-90
2021/06/16 15:13:01;;;;;;;;;;;;;;;52.75;6.08;101264.38;5021426;28;98817;-93
2021/06/16 15:31:39;;;;;;;;;;;;;;;35.92;17.74;101246.47;5538961;22;100821;-91
2021/06/16 15:36:50;;;;;;;;;;;;;;;35.20;18.98;101230.50;5053100;27;98900;-87
2021/06/16 15:42:07;;;;;;;;;;;;;;;34.74;19.71;101230.22;5048477;27;96855;-88
2021/06/16 15:44:49;;;;;;;;;;;;;;;34.85;19.62;101224.19;5051229;27;98868;-89
2021/06/16 15:55:27;;;;;;;;;;;;;;;34.69;20.64;101211.59;5038934;28;96744;-84
2021/06/16 16:12:21;;;;;;;;;;;;;;;33.28;21.79;101207.78;5055268;27;96558;-90
2021/06/16 16:14:57;;;;;;;;;;;;;;;33.30;21.47;101197.50;5052883;28;97098;-87
2021/06/16 16:17:30;;;;;;;;;;;;;;;33.33;21.53;101201.78;5049029;27;98347;-88
2021/06/16 16:28:09;;;;;;;;;;;;;;;33.47;21.50;101193.53;5048348;28;98865;-88
2021/06/16 16:30:40;;;;;;;;;;;;;;;32.86;21.97;101185.72;5045811;28;98156;-88
2021/06/16 16:35:52;;;;;;;;;;;;;;;32.56;22.43;101195.78;5045162;28;96870;-90
2021/06/16 16:38:20;;;;;;;;;;;;;;;32.12;22.99;101193.75;5051395;27;96735;-90
2021/06/16 16:54:39;;;;;;;;;;;;;;;32.72;21.99;101187.41;5062309;27;95934;-84
2021/06/16 16:57:06;;;;;;;;;;;;;;;32.53;22.75;101185.19;5068085;27;96687;-88
2021/06/16 17:21:10;;;;;;;;;;;;;;;32.21;22.84;101186.38;5041900;28;98543;-89
2021/06/16 17:29:03;;;;;;;;;;;;;;;31.60;23.87;101191.75;5037060;28;96117;-89
2021/06/16 17:42:36;;;;;;;;;;;;;;;31.34;24.25;101191.19;5032043;28;98487;-91
2021/06/16 17:45:07;;;;;;;;;;;;;;;31.15;25.69;101188.88;5023524;28;99098;-90
2021/06/16 17:47:43;;;;;;;;;;;;;;;31.06;24.81;101193.50;5037179;28;96562;-90
2021/06/16 17:58:34;;;;;;;;;;;;;;;31.24;25.10;101194.09;5033757;28;96738;-87
2021/06/16 18:01:07;;;;;;;;;;;;;;;31.27;26.01;101198.38;5017266;28;96925;-90
2021/06/16 18:03:35;;;;;;;;;;;;;;;30.81;24.29;101194.59;5014872;28;97893;-90
2021/06/16 18:06:08;;;;;;;;;;;;;;;30.98;23.95;101189.97;5036061;28;99898;-89
2021/06/16 18:14:33;;;;;;;;;;;;;;;30.33;25.14;101195.50;5033138;28;99924;-88
2021/06/16 18:17:15;;;;;;;;;;;;;;;30.61;25.71;101201.47;5039934;28;98429;-90
2021/06/16 18:46:13;;;;;;;;;;;;;;;29.41;24.68;101203.88;5015284;28;98499;-87
2021/06/16 20:07:02;;;;;;;;;;;;;;;28.96;24.49;101240.38;5030509;28;96718;-91
2021/06/16 20:09:31;;;;;;;;;;;;;;;28.51;24.75;101229.69;5035967;28;96594;-89
2021/06/16 20:12:03;;;;;;;;;;;;;;;28.37;24.87;101236.53;5034576;28;100264;-90
2021/06/16 20:14:39;;;;;;;;;;;;;;;28.57;24.79;101230.91;5036235;28;96664;-88
2021/06/16 20:17:08;;;;;;;;;;;;;;;28.36;24.53;101232.13;5028599;28;96478;-87
2021/06/16 20:19:36;;;;;;;;;;;;;;;28.58;24.81;101233.47;5023833;28;96859;-91
2021/06/16 20:35:36;;;;;;;;;;;;;;;28.19;25.08;101245.72;6127595;22;782060;-89
2021/06/16 20:43:11;;;;;;;;;;;;;;;28.43;24.90;101245.94;6070277;23;96526;-87
2021/06/16 20:53:32;;;;;;;;;;;;;;;28.37;25.81;101246.56;6095479;23;99714;-88
2021/06/16 21:01:20;;;;;;;;;;;;;;;27.98;26.23;101255.00;6093418;23;96588;-88
2021/06/16 21:06:30;;;;;;;;;;;;;;;27.86;26.42;101253.53;6091945;23;96465;-89
2021/06/16 21:12:19;;;;;;;;;;;;;;;27.85;26.77;101262.69;6090735;22;99704;-88
2021/06/16 21:17:43;;;;;;;;;;;;;;;27.84;26.69;101254.69;6172115;22;96904;-88
2021/06/16 21:22:41;;;;;;;;;;;;;;;27.52;27.00;101266.88;6097145;23;97468;-87
2021/06/16 21:30:41;;;;;;;;;;;;;;;27.72;26.93;101256.78;6108545;22;96387;-87
2021/06/16 21:33:08;;;;;;;;;;;;;;;27.72;27.31;101257.63;6129555;23;99731;-86
2021/06/16 21:35:45;;;;;;;;;;;;;;;27.77;27.05;101249.00;6124266;23;98024;-85
2021/06/16 21:38:15;;;;;;;;;;;;;;;27.36;27.77;101253.09;6122969;23;96495;-85
2021/06/16 21:40:50;;;;;;;;;;;;;;;27.88;27.11;101250.66;6119360;23;97557;-85
2021/06/16 21:59:49;;;;;;;;;;;;;;;27.61;28.32;101243.41;5086340;27;96787;-88
2021/06/16 22:10:26;;;;;;;;;;;;;;;27.56;28.33;101253.88;5072925;27;96895;-85
2021/06/16 22:12:53;;;;;;;;;;;;;;;27.52;28.75;101247.03;5056509;27;96843;-84
2021/06/16 22:15:31;;;;;;;;;;;;;;;27.28;29.06;101236.72;5050841;27;98922;-84
2021/06/16 22:17:58;;;;;;;;;;;;;;;27.62;28.44;101250.56;5056201;27;98626;-83
2021/06/16 22:26:01;;;;;;;;;;;;;;;27.45;28.97;101254.03;5066390;27;98435;-86
2021/06/16 22:28:29;;;;;;;;;;;;;;;27.52;28.92;101247.03;5059436;27;96720;-81
2021/06/16 22:30:58;;;;;;;;;;;;;;;27.22;29.64;101245.47;5060484;27;97467;-85
2021/06/16 22:33:25;;;;;;;;;;;;;;;27.45;29.30;101248.59;5056013;27;96850;-86
2021/06/16 22:35:53;;;;;;;;;;;;;;;26.92;30.07;101244.69;5057127;27;100137;-85
2021/06/16 22:38:19;;;;;;;;;;;;;;;26.73;30.69;101246.59;5064474;27;99935;-84
2021/06/16 22:40:50;;;;;;;;;;;;;;;27.04;30.25;101237.25;5066301;27;96775;-85
2021/06/16 22:43:18;;;;;;;;;;;;;;;27.18;30.02;101242.16;5067523;27;96907;-85
2021/06/16 22:45:45;;;;;;;;;;;;;;;27.32;29.91;101248.97;5055047;27;101082;-83
2021/06/16 22:48:15;;;;;;;;;;;;;;;27.46;29.82;101247.59;5062205;27;100817;-85
2021/06/16 22:50:44;;;;;;;;;;;;;;;27.29;30.07;101233.84;5062184;27;96782;-83
2021/06/16 22:53:11;;;;;;;;;;;;;;;27.37;30.12;101227.69;5076020;27;96585;-83
2021/06/16 22:55:38;;;;;;;;;;;;;;;27.40;30.26;101235.50;5068689;27;96800;-84
2021/06/16 22:58:12;;;;;;;;;;;;;;;27.25;30.40;101226.16;5075029;27;100225;-85
2021/06/16 23:00:40;;;;;;;;;;;;;;;27.23;30.65;101225.47;5043637;28;96731;-84
2021/06/16 23:03:11;;;;;;;;;;;;;;;27.48;30.33;101232.91;5047697;27;96996;-84
2021/06/16 23:05:39;;;;;;;;;;;;;;;27.14;30.96;101229.06;5047449;28;99200;-84